Latest Weather Observations for Kurnell

IDN60801

Issued at 5:35 pm EST Friday 19 September 2014 (issued every 30 minutes, with the page automatically refreshed every 10 minutes)

About weather observations | Map of weather stations | Latest weather observations for NSW | Other Formats
Station Details ID: 066043 Name: KURNELL AWS Lat: -34.00 Lon: 151.21 Height: 4.0 m
Data from the previous 72 hours. | See also: Recent months for locations in New South Wales
Date/Time
EST
Temp
°C
App
Temp
°C
Dew
Point
Rel
Hum
%
Delta-T
°C
Wind Press
QNH
hPa
Press
MSL
hPa
Rain
since 9 am
mm
Dir
 
Spd
km/h
Gust
km/h
Spd
kts
Gust
kts
19/05:30pm - - - - - SE 15 19 8 10 - - -
19/05:00pm - - - - - SE 15 19 8 10 - - -
19/04:30pm - - - - - SE 15 19 8 10 - - -
19/04:00pm - - - - - ESE 15 19 8 10 - - -
19/03:30pm - - - - - ESE 15 22 8 12 - - -
19/03:00pm - - - - - E 17 20 9 11 - - -
19/02:30pm - - - - - E 19 22 10 12 - - -
19/02:00pm - - - - - E 19 22 10 12 - - -
19/01:30pm - - - - - ENE 17 20 9 11 - - -
19/01:00pm - - - - - NNE 11 11 6 6 - - -
19/12:30pm - - - - - NNE 11 13 6 7 - - -
19/12:00pm - - - - - N 9 13 5 7 - - -
19/11:30am - - - - - NW 6 7 3 4 - - -
19/11:00am - - - - - NW 6 7 3 4 - - -
19/10:30am - - - - - NNW 11 13 6 7 - - -
19/10:00am - - - - - NNW 13 15 7 8 - - -
19/09:30am - - - - - NW 11 13 6 7 - - -
19/09:00am - - - - - NW 13 13 7 7 - - -
19/08:30am - - - - - NW 13 15 7 8 - - -
19/08:00am - - - - - NW 13 15 7 8 - - -
19/07:30am - - - - - WNW 13 15 7 8 - - -
19/07:00am - - - - - WNW 11 13 6 7 - - -
19/06:30am - - - - - WNW 13 15 7 8 - - -
19/06:00am - - - - - WNW 13 17 7 9 - - -
19/05:30am - - - - - NW 15 17 8 9 - - -
19/05:00am - - - - - WNW 15 19 8 10 - - -
19/04:30am - - - - - WNW 13 15 7 8 - - -
19/04:00am - - - - - W 17 20 9 11 - - -
19/03:30am - - - - - WSW 13 17 7 9 - - -
19/03:00am - - - - - W 19 22 10 12 - - -
19/02:30am - - - - - W 20 24 11 13 - - -
19/02:00am - - - - - W 17 19 9 10 - - -
19/01:30am - - - - - W 11 15 6 8 - - -
19/01:00am - - - - - WSW 9 13 5 7 - - -
19/12:30am - - - - - WSW 11 13 6 7 - - -
19/12:00am - - - - - WSW 13 17 7 9 - - -
 
Date/Time
EST
Temp
°C
App
Temp
°C
Dew
Point
Rel
Hum
%
Delta-T
°C
Wind Press
QNH
hPa
Press
MSL
hPa
Rain
since 9 am
mm
Dir
 
Spd
km/h
Gust
km/h
Spd
kts
Gust
kts
18/11:30pm - - - - - W 15 17 8 9 - - -
18/11:00pm - - - - - W 15 17 8 9 - - -
18/10:30pm - - - - - W 17 19 9 10 - - -
18/10:00pm - - - - - WSW 15 17 8 9 - - -
18/09:30pm - - - - - W 19 22 10 12 - - -
18/09:00pm - - - - - W 19 24 10 13 - - -
18/08:30pm - - - - - WSW 19 24 10 13 - - -
18/08:00pm - - - - - WSW 13 15 7 8 - - -
18/07:30pm - - - - - S 13 17 7 9 - - -
18/07:00pm - - - - - SSE 13 19 7 10 - - -
18/06:30pm - - - - - SSE 11 17 6 9 - - -
18/06:00pm - - - - - SE 13 17 7 9 - - -
18/05:30pm - - - - - SSE 19 26 10 14 - - -
18/05:00pm - - - - - SSE 19 28 10 15 - - -
18/04:30pm - - - - - SE 22 28 12 15 - - -
18/04:00pm - - - - - SSE 26 32 14 17 - - -
18/03:30pm - - - - - SSE 24 33 13 18 - - -
18/03:00pm - - - - - SSE 28 39 15 21 - - -
18/02:30pm - - - - - S 22 30 12 16 - - -
18/02:00pm - - - - - S 20 32 11 17 - - -
18/01:30pm - - - - - S 22 32 12 17 - - -
18/01:00pm - - - - - SSE 24 33 13 18 - - -
18/12:30pm - - - - - SSE 24 33 13 18 - - -
18/12:00pm - - - - - S 24 37 13 20 - - -
18/11:30am - - - - - S 24 33 13 18 - - -
18/11:00am - - - - - S 20 30 11 16 - - -
18/10:30am - - - - - SSW 28 35 15 19 - - -
18/10:00am - - - - - SW 22 32 12 17 - - -
18/09:30am - - - - - W 24 32 13 17 - - -
18/09:00am - - - - - W 28 37 15 20 - - -
18/08:30am - - - - - W 33 41 18 22 - - -
18/08:00am - - - - - W 35 44 19 24 - - -
18/07:30am - - - - - W 28 39 15 21 - - -
18/07:00am - - - - - W 20 26 11 14 - - -
18/06:30am - - - - - W 24 28 13 15 - - -
18/06:00am - - - - - W 19 22 10 12 - - -
18/05:30am - - - - - W 17 20 9 11 - - -
18/05:00am - - - - - WSW 17 20 9 11 - - -
18/04:30am - - - - - WSW 17 19 9 10 - - -
18/04:00am - - - - - W 17 20 9 11 - - -
18/03:30am - - - - - W 15 17 8 9 - - -
18/03:00am - - - - - WSW 19 26 10 14 - - -
18/02:30am - - - - - WSW 11 15 6 8 - - -
18/02:00am - - - - - SSW 11 15 6 8 - - -
18/01:30am - - - - - W 28 32 15 17 - - -
18/01:00am - - - - - W 32 39 17 21 - - -
18/12:30am - - - - - W 32 39 17 21 - - -
18/12:00am - - - - - WNW 26 33 14 18 - - -
 
Date/Time
EST
Temp
°C
App
Temp
°C
Dew
Point
Rel
Hum
%
Delta-T
°C
Wind Press
QNH
hPa
Press
MSL
hPa
Rain
since 9 am
mm
Dir
 
Spd
km/h
Gust
km/h
Spd
kts
Gust
kts
17/11:30pm - - - - - W 22 32 12 17 - - -
17/11:00pm - - - - - W 28 35 15 19 - - -
17/10:30pm - - - - - W 17 20 9 11 - - -
17/10:00pm - - - - - W 24 28 13 15 - - -
17/09:30pm - - - - - W 28 32 15 17 - - -
17/09:00pm - - - - - W 17 20 9 11 - - -
17/08:30pm - - - - - W 13 15 7 8 - - -
17/08:00pm - - - - - W 15 19 8 10 - - -
17/07:30pm - - - - - WSW 17 22 9 12 - - -
17/07:00pm - - - - - W 20 26 11 14 - - -
17/06:30pm - - - - - W 28 39 15 21 - - -
17/06:00pm - - - - - W 24 28 13 15 - - -
17/05:30pm - - - - - W 30 43 16 23 - - -
17/05:00pm - - - - - W 39 52 21 28 - - -
17/04:30pm - - - - - W 39 52 21 28 - - -
17/04:00pm - - - - - W 43 57 23 31 - - -
17/03:30pm - - - - - W 44 56 24 30 - - -
17/03:00pm - - - - - W 37 48 20 26 - - -
17/02:30pm - - - - - W 37 50 20 27 - - -
17/02:00pm - - - - - W 41 52 22 28 - - -
17/01:30pm - - - - - W 33 43 18 23 - - -
17/01:00pm - - - - - W 39 50 21 27 - - -
17/12:30pm - - - - - W 32 48 17 26 - - -
17/12:00pm - - - - - W 33 39 18 21 - - -
17/11:30am - - - - - W 39 46 21 25 - - -
17/11:00am - - - - - W 35 43 19 23 - - -
17/10:30am - - - - - W 39 48 21 26 - - -
17/10:00am - - - - - W 41 54 22 29 - - -
17/09:30am - - - - - W 39 63 21 34 - - -
17/09:21am - - - - - W 41 59 22 32 - - -
17/09:00am - - - - - W 39 46 21 25 - - -
17/08:30am - - - - - W 39 50 21 27 - - -
17/08:00am - - - - - W 37 46 20 25 - - -
17/07:30am - - - - - WNW 33 41 18 22 - - -
17/07:00am - - - - - WNW 32 37 17 20 - - -
17/06:30am - - - - - WNW 32 37 17 20 - - -
17/06:00am - - - - - WNW 32 37 17 20 - - -
17/05:30am - - - - - WNW 32 39 17 21 - - -
17/05:00am - - - - - WNW 28 33 15 18 - - -
17/04:30am - - - - - WNW 24 30 13 16 - - -
17/04:00am - - - - - WNW 26 32 14 17 - - -
17/03:30am - - - - - WNW 28 32 15 17 - - -
17/03:00am - - - - - WNW 30 35 16 19 - - -
17/02:30am - - - - - WNW 33 37 18 20 - - -
17/02:00am - - - - - WNW 35 41 19 22 - - -
17/01:30am - - - - - NW 28 32 15 17 - - -
17/01:00am - - - - - NW 32 37 17 20 - - -
17/12:30am - - - - - WNW 30 35 16 19 - - -
17/12:00am - - - - - NW 28 33 15 18 - - -
 
Date/Time
EST
Temp
°C
App
Temp
°C
Dew
Point
Rel
Hum
%
Delta-T
°C
Wind Press
QNH
hPa
Press
MSL
hPa
Rain
since 9 am
mm
Dir
 
Spd
km/h
Gust
km/h
Spd
kts
Gust
kts
16/11:30pm - - - - - WNW 28 32 15 17 - - -
16/11:00pm - - - - - WNW 28 32 15 17 - - -
16/10:30pm - - - - - WNW 35 39 19 21 - - -
16/10:00pm - - - - - WNW 43 54 23 29 - - -
16/09:30pm - - - - - WNW 43 54 23 29 - - -
16/09:00pm - - - - - W 46 57 25 31 - - -
16/08:30pm - - - - - W 37 46 20 25 - - -
16/08:00pm - - - - - WNW 43 50 23 27 - - -
16/07:30pm - - - - - W 39 46 21 25 - - -
16/07:00pm - - - - - W 35 41 19 22 - - -
16/06:30pm - - - - - W 41 50 22 27 - - -
16/06:00pm - - - - - WNW 35 46 19 25 - - -

Other Formats:

Comma delimited format used in spreadsheet applications
http://www.bom.gov.au/fwo/IDN60801/IDN60801.95756.axf

JavaScript Object Notation format (JSON) in row-major order
http://www.bom.gov.au/fwo/IDN60801/IDN60801.95756.json